sensor_id;sensor_type;location;lat;lon;timestamp;P1;durP1;ratioP1;P2;durP2;ratioP2
70010;SDS011;59543;37.950;-122.338;2022-07-23T00:00:40;31.88;;;7.95;;
70010;SDS011;59543;37.950;-122.338;2022-07-23T00:03:07;31.02;;;7.28;;
70010;SDS011;59543;37.950;-122.338;2022-07-23T00:05:33;33.25;;;7.78;;
70010;SDS011;59543;37.950;-122.338;2022-07-23T00:07:59;28.88;;;7.10;;
70010;SDS011;59543;37.950;-122.338;2022-07-23T00:10:25;35.83;;;7.65;;
70010;SDS011;59543;37.950;-122.338;2022-07-23T00:12:52;30.15;;;8.48;;
70010;SDS011;59543;37.950;-122.338;2022-07-23T00:15:18;28.98;;;7.80;;
70010;SDS011;59543;37.950;-122.338;2022-07-23T00:17:44;29.92;;;7.47;;
70010;SDS011;59543;37.950;-122.338;2022-07-23T00:20:11;33.10;;;7.95;;
70010;SDS011;59543;37.950;-122.338;2022-07-23T00:22:45;32.30;;;7.70;;
70010;SDS011;59543;37.950;-122.338;2022-07-23T00:25:12;29.95;;;7.47;;
70010;SDS011;59543;37.950;-122.338;2022-07-23T00:27:39;29.13;;;7.45;;
70010;SDS011;59543;37.950;-122.338;2022-07-23T00:30:05;28.08;;;7.65;;
70010;SDS011;59543;37.950;-122.338;2022-07-23T00:32:32;32.03;;;7.22;;
70010;SDS011;59543;37.950;-122.338;2022-07-23T00:34:58;30.27;;;8.02;;
70010;SDS011;59543;37.950;-122.338;2022-07-23T00:37:24;30.35;;;7.32;;
70010;SDS011;59543;37.950;-122.338;2022-07-23T00:39:51;32.28;;;7.75;;
70010;SDS011;59543;37.950;-122.338;2022-07-23T00:42:17;37.08;;;8.68;;
70010;SDS011;59543;37.950;-122.338;2022-07-23T00:44:43;29.38;;;7.85;;
70010;SDS011;59543;37.950;-122.338;2022-07-23T00:47:09;31.00;;;7.38;;
70010;SDS011;59543;37.950;-122.338;2022-07-23T00:49:35;32.08;;;8.45;;
70010;SDS011;59543;37.950;-122.338;2022-07-23T00:52:04;35.95;;;7.72;;
70010;SDS011;59543;37.950;-122.338;2022-07-23T00:54:34;35.80;;;8.07;;
70010;SDS011;59543;37.950;-122.338;2022-07-23T00:57:04;34.70;;;7.97;;
70010;SDS011;59543;37.950;-122.338;2022-07-23T00:59:31;39.78;;;8.43;;
70010;SDS011;59543;37.950;-122.338;2022-07-23T01:01:57;40.22;;;8.05;;
70010;SDS011;59543;37.950;-122.338;2022-07-23T01:04:27;42.38;;;8.98;;
70010;SDS011;59543;37.950;-122.338;2022-07-23T01:06:53;29.65;;;7.00;;
70010;SDS011;59543;37.950;-122.338;2022-07-23T01:09:19;36.08;;;8.30;;
70010;SDS011;59543;37.950;-122.338;2022-07-23T01:11:45;33.10;;;7.93;;
70010;SDS011;59543;37.950;-122.338;2022-07-23T01:14:13;41.13;;;8.35;;
70010;SDS011;59543;37.950;-122.338;2022-07-23T01:16:41;33.10;;;8.38;;
70010;SDS011;59543;37.950;-122.338;2022-07-23T01:19:09;33.22;;;7.60;;
70010;SDS011;59543;37.950;-122.338;2022-07-23T01:21:37;36.60;;;8.75;;
70010;SDS011;59543;37.950;-122.338;2022-07-23T01:24:08;37.88;;;8.50;;
70010;SDS011;59543;37.950;-122.338;2022-07-23T01:26:36;36.50;;;8.20;;
70010;SDS011;59543;37.950;-122.338;2022-07-23T01:29:03;29.92;;;7.47;;
70010;SDS011;59543;37.950;-122.338;2022-07-23T01:31:30;32.63;;;8.43;;
70010;SDS011;59543;37.950;-122.338;2022-07-23T01:33:57;43.15;;;8.95;;
70010;SDS011;59543;37.950;-122.338;2022-07-23T01:36:23;30.58;;;7.88;;
70010;SDS011;59543;37.950;-122.338;2022-07-23T01:38:49;40.47;;;9.05;;
70010;SDS011;59543;37.950;-122.338;2022-07-23T01:41:16;35.83;;;8.38;;
70010;SDS011;59543;37.950;-122.338;2022-07-23T01:43:42;39.63;;;8.82;;
70010;SDS011;59543;37.950;-122.338;2022-07-23T01:46:09;34.53;;;8.27;;
70010;SDS011;59543;37.950;-122.338;2022-07-23T01:48:35;30.70;;;7.50;;
70010;SDS011;59543;37.950;-122.338;2022-07-23T01:51:01;27.63;;;7.93;;
70010;SDS011;59543;37.950;-122.338;2022-07-23T01:53:27;38.85;;;8.63;;
70010;SDS011;59543;37.950;-122.338;2022-07-23T01:55:56;46.00;;;8.05;;
70010;SDS011;59543;37.950;-122.338;2022-07-23T01:58:24;34.78;;;8.48;;
70010;SDS011;59543;37.950;-122.338;2022-07-23T02:00:50;35.60;;;8.10;;
70010;SDS011;59543;37.950;-122.338;2022-07-23T02:03:16;28.27;;;8.02;;
70010;SDS011;59543;37.950;-122.338;2022-07-23T02:05:43;40.45;;;8.00;;
70010;SDS011;59543;37.950;-122.338;2022-07-23T02:08:09;43.92;;;8.73;;
70010;SDS011;59543;37.950;-122.338;2022-07-23T02:10:35;28.73;;;7.68;;
70010;SDS011;59543;37.950;-122.338;2022-07-23T02:13:02;37.92;;;7.65;;
70010;SDS011;59543;37.950;-122.338;2022-07-23T02:15:28;34.33;;;8.27;;
70010;SDS011;59543;37.950;-122.338;2022-07-23T02:17:55;35.22;;;8.27;;
70010;SDS011;59543;37.950;-122.338;2022-07-23T02:20:21;33.35;;;7.55;;
70010;SDS011;59543;37.950;-122.338;2022-07-23T02:22:48;40.58;;;8.15;;
70010;SDS011;59543;37.950;-122.338;2022-07-23T02:25:14;36.42;;;7.20;;
70010;SDS011;59543;37.950;-122.338;2022-07-23T02:27:40;42.17;;;8.82;;
70010;SDS011;59543;37.950;-122.338;2022-07-23T02:30:07;36.08;;;7.93;;
70010;SDS011;59543;37.950;-122.338;2022-07-23T02:32:34;26.67;;;7.38;;
70010;SDS011;59543;37.950;-122.338;2022-07-23T02:35:00;38.33;;;8.27;;
70010;SDS011;59543;37.950;-122.338;2022-07-23T02:37:27;32.15;;;8.18;;
70010;SDS011;59543;37.950;-122.338;2022-07-23T02:39:53;35.90;;;8.45;;
70010;SDS011;59543;37.950;-122.338;2022-07-23T02:42:19;31.25;;;7.53;;
70010;SDS011;59543;37.950;-122.338;2022-07-23T02:44:46;32.83;;;8.20;;
70010;SDS011;59543;37.950;-122.338;2022-07-23T02:47:12;33.83;;;8.43;;
70010;SDS011;59543;37.950;-122.338;2022-07-23T02:49:38;33.70;;;8.15;;
70010;SDS011;59543;37.950;-122.338;2022-07-23T02:52:04;33.97;;;8.75;;
70010;SDS011;59543;37.950;-122.338;2022-07-23T02:54:31;35.42;;;8.63;;
70010;SDS011;59543;37.950;-122.338;2022-07-23T02:56:57;36.28;;;8.88;;
70010;SDS011;59543;37.950;-122.338;2022-07-23T02:59:23;42.53;;;8.85;;
70010;SDS011;59543;37.950;-122.338;2022-07-23T03:01:49;41.00;;;8.70;;
70010;SDS011;59543;37.950;-122.338;2022-07-23T03:04:15;33.58;;;8.45;;
70010;SDS011;59543;37.950;-122.338;2022-07-23T03:06:41;39.55;;;8.68;;
70010;SDS011;59543;37.950;-122.338;2022-07-23T03:09:08;41.75;;;8.65;;
70010;SDS011;59543;37.950;-122.338;2022-07-23T03:11:34;34.42;;;8.90;;
70010;SDS011;59543;37.950;-122.338;2022-07-23T03:14:01;39.13;;;8.68;;
70010;SDS011;59543;37.950;-122.338;2022-07-23T03:16:27;41.13;;;8.85;;
70010;SDS011;59543;37.950;-122.338;2022-07-23T03:18:53;38.90;;;8.52;;
70010;SDS011;59543;37.950;-122.338;2022-07-23T03:21:19;35.25;;;8.80;;
70010;SDS011;59543;37.950;-122.338;2022-07-23T03:23:46;41.20;;;8.75;;
70010;SDS011;59543;37.950;-122.338;2022-07-23T03:26:12;38.78;;;8.75;;
70010;SDS011;59543;37.950;-122.338;2022-07-23T03:28:38;45.45;;;9.27;;
70010;SDS011;59543;37.950;-122.338;2022-07-23T03:31:04;40.20;;;9.40;;
70010;SDS011;59543;37.950;-122.338;2022-07-23T03:33:30;46.47;;;9.20;;
70010;SDS011;59543;37.950;-122.338;2022-07-23T03:35:56;39.05;;;9.18;;
70010;SDS011;59543;37.950;-122.338;2022-07-23T03:38:23;35.72;;;8.90;;
70010;SDS011;59543;37.950;-122.338;2022-07-23T03:40:49;45.72;;;9.93;;
70010;SDS011;59543;37.950;-122.338;2022-07-23T03:43:15;41.78;;;9.10;;
70010;SDS011;59543;37.950;-122.338;2022-07-23T03:45:41;60.72;;;10.77;;
70010;SDS011;59543;37.950;-122.338;2022-07-23T03:48:08;52.42;;;9.70;;
70010;SDS011;59543;37.950;-122.338;2022-07-23T03:50:34;38.60;;;8.60;;
70010;SDS011;59543;37.950;-122.338;2022-07-23T03:53:01;46.53;;;9.93;;
70010;SDS011;59543;37.950;-122.338;2022-07-23T03:55:27;43.05;;;9.27;;
70010;SDS011;59543;37.950;-122.338;2022-07-23T03:57:53;52.97;;;10.07;;
70010;SDS011;59543;37.950;-122.338;2022-07-23T04:00:19;45.88;;;10.45;;
70010;SDS011;59543;37.950;-122.338;2022-07-23T04:02:46;48.67;;;10.32;;
70010;SDS011;59543;37.950;-122.338;2022-07-23T04:05:12;44.63;;;9.82;;
70010;SDS011;59543;37.950;-122.338;2022-07-23T04:07:38;44.97;;;10.02;;
70010;SDS011;59543;37.950;-122.338;2022-07-23T04:10:05;44.40;;;10.05;;
70010;SDS011;59543;37.950;-122.338;2022-07-23T04:12:32;47.33;;;9.70;;
70010;SDS011;59543;37.950;-122.338;2022-07-23T04:14:58;39.85;;;9.25;;
70010;SDS011;59543;37.950;-122.338;2022-07-23T04:17:24;51.72;;;9.75;;
70010;SDS011;59543;37.950;-122.338;2022-07-23T04:19:50;48.08;;;9.23;;
70010;SDS011;59543;37.950;-122.338;2022-07-23T04:22:17;39.42;;;9.73;;
70010;SDS011;59543;37.950;-122.338;2022-07-23T04:24:43;44.80;;;10.18;;
70010;SDS011;59543;37.950;-122.338;2022-07-23T04:27:09;43.95;;;10.45;;
70010;SDS011;59543;37.950;-122.338;2022-07-23T04:29:35;51.08;;;10.00;;
70010;SDS011;59543;37.950;-122.338;2022-07-23T04:32:01;41.38;;;10.02;;
70010;SDS011;59543;37.950;-122.338;2022-07-23T04:34:28;43.83;;;9.23;;
70010;SDS011;59543;37.950;-122.338;2022-07-23T04:36:54;42.13;;;9.77;;
70010;SDS011;59543;37.950;-122.338;2022-07-23T04:39:20;57.08;;;9.52;;
70010;SDS011;59543;37.950;-122.338;2022-07-23T04:41:46;50.47;;;10.13;;
70010;SDS011;59543;37.950;-122.338;2022-07-23T04:44:13;46.78;;;9.98;;
70010;SDS011;59543;37.950;-122.338;2022-07-23T04:46:39;42.20;;;10.68;;
70010;SDS011;59543;37.950;-122.338;2022-07-23T04:49:05;51.00;;;10.35;;
70010;SDS011;59543;37.950;-122.338;2022-07-23T04:51:32;43.13;;;9.05;;
70010;SDS011;59543;37.950;-122.338;2022-07-23T04:53:58;53.13;;;10.75;;
70010;SDS011;59543;37.950;-122.338;2022-07-23T04:56:24;44.45;;;9.90;;
70010;SDS011;59543;37.950;-122.338;2022-07-23T04:58:50;47.50;;;9.95;;
70010;SDS011;59543;37.950;-122.338;2022-07-23T05:01:16;42.00;;;9.40;;
70010;SDS011;59543;37.950;-122.338;2022-07-23T05:03:42;54.60;;;10.90;;
70010;SDS011;59543;37.950;-122.338;2022-07-23T05:06:09;39.17;;;9.23;;
70010;SDS011;59543;37.950;-122.338;2022-07-23T05:08:35;48.90;;;10.52;;
70010;SDS011;59543;37.950;-122.338;2022-07-23T05:11:01;41.90;;;10.30;;
70010;SDS011;59543;37.950;-122.338;2022-07-23T05:13:27;45.97;;;9.90;;
70010;SDS011;59543;37.950;-122.338;2022-07-23T05:15:53;42.50;;;8.50;;
70010;SDS011;59543;37.950;-122.338;2022-07-23T05:18:20;41.47;;;9.77;;
70010;SDS011;59543;37.950;-122.338;2022-07-23T05:20:46;47.50;;;10.65;;
70010;SDS011;59543;37.950;-122.338;2022-07-23T05:23:12;42.95;;;10.02;;
70010;SDS011;59543;37.950;-122.338;2022-07-23T05:25:39;51.38;;;10.30;;
70010;SDS011;59543;37.950;-122.338;2022-07-23T05:28:05;51.35;;;9.95;;
70010;SDS011;59543;37.950;-122.338;2022-07-23T05:30:32;43.67;;;10.10;;
70010;SDS011;59543;37.950;-122.338;2022-07-23T05:32:58;43.85;;;9.70;;
70010;SDS011;59543;37.950;-122.338;2022-07-23T05:35:24;48.45;;;10.45;;
70010;SDS011;59543;37.950;-122.338;2022-07-23T05:37:51;42.70;;;10.07;;
70010;SDS011;59543;37.950;-122.338;2022-07-23T05:40:18;46.25;;;9.80;;
70010;SDS011;59543;37.950;-122.338;2022-07-23T05:42:44;39.83;;;10.13;;
70010;SDS011;59543;37.950;-122.338;2022-07-23T05:45:10;44.50;;;9.70;;
70010;SDS011;59543;37.950;-122.338;2022-07-23T05:47:49;46.97;;;10.32;;
70010;SDS011;59543;37.950;-122.338;2022-07-23T05:50:15;51.70;;;10.50;;
70010;SDS011;59543;37.950;-122.338;2022-07-23T05:52:42;50.38;;;11.13;;
70010;SDS011;59543;37.950;-122.338;2022-07-23T05:55:09;55.80;;;10.65;;
70010;SDS011;59543;37.950;-122.338;2022-07-23T05:57:37;54.70;;;10.90;;
70010;SDS011;59543;37.950;-122.338;2022-07-23T06:00:05;50.65;;;10.50;;
70010;SDS011;59543;37.950;-122.338;2022-07-23T06:02:33;53.65;;;11.20;;
70010;SDS011;59543;37.950;-122.338;2022-07-23T06:04:59;47.00;;;10.85;;
70010;SDS011;59543;37.950;-122.338;2022-07-23T06:07:25;45.33;;;9.93;;
70010;SDS011;59543;37.950;-122.338;2022-07-23T06:09:51;47.42;;;10.82;;
70010;SDS011;59543;37.950;-122.338;2022-07-23T06:12:18;46.70;;;10.60;;
70010;SDS011;59543;37.950;-122.338;2022-07-23T06:14:44;49.67;;;10.65;;
70010;SDS011;59543;37.950;-122.338;2022-07-23T06:17:10;49.95;;;12.10;;
70010;SDS011;59543;37.950;-122.338;2022-07-23T06:19:36;55.53;;;11.60;;
70010;SDS011;59543;37.950;-122.338;2022-07-23T06:22:03;48.53;;;10.07;;
70010;SDS011;59543;37.950;-122.338;2022-07-23T06:24:29;57.55;;;11.10;;
70010;SDS011;59543;37.950;-122.338;2022-07-23T06:26:55;43.03;;;10.38;;
70010;SDS011;59543;37.950;-122.338;2022-07-23T06:29:21;46.97;;;10.82;;
70010;SDS011;59543;37.950;-122.338;2022-07-23T06:31:47;49.90;;;11.13;;
70010;SDS011;59543;37.950;-122.338;2022-07-23T06:34:14;59.47;;;12.48;;
70010;SDS011;59543;37.950;-122.338;2022-07-23T06:36:40;55.30;;;11.50;;
70010;SDS011;59543;37.950;-122.338;2022-07-23T06:39:06;53.63;;;11.80;;
70010;SDS011;59543;37.950;-122.338;2022-07-23T06:41:32;58.17;;;11.20;;
70010;SDS011;59543;37.950;-122.338;2022-07-23T06:43:59;55.10;;;11.38;;
70010;SDS011;59543;37.950;-122.338;2022-07-23T06:46:25;59.33;;;11.68;;
70010;SDS011;59543;37.950;-122.338;2022-07-23T06:48:51;50.55;;;11.38;;
70010;SDS011;59543;37.950;-122.338;2022-07-23T06:51:17;60.00;;;12.55;;
70010;SDS011;59543;37.950;-122.338;2022-07-23T06:53:44;60.15;;;12.45;;
70010;SDS011;59543;37.950;-122.338;2022-07-23T06:56:10;50.75;;;11.55;;
70010;SDS011;59543;37.950;-122.338;2022-07-23T06:58:36;52.28;;;12.05;;
70010;SDS011;59543;37.950;-122.338;2022-07-23T07:01:02;57.38;;;11.77;;
70010;SDS011;59543;37.950;-122.338;2022-07-23T07:03:29;59.70;;;12.68;;
70010;SDS011;59543;37.950;-122.338;2022-07-23T07:05:55;59.05;;;12.10;;
70010;SDS011;59543;37.950;-122.338;2022-07-23T07:08:23;62.33;;;12.70;;
70010;SDS011;59543;37.950;-122.338;2022-07-23T07:10:49;58.30;;;12.23;;
70010;SDS011;59543;37.950;-122.338;2022-07-23T07:13:16;65.30;;;13.27;;
70010;SDS011;59543;37.950;-122.338;2022-07-23T07:15:42;56.85;;;12.23;;
70010;SDS011;59543;37.950;-122.338;2022-07-23T07:18:08;69.07;;;13.45;;
70010;SDS011;59543;37.950;-122.338;2022-07-23T07:20:34;61.20;;;12.00;;
70010;SDS011;59543;37.950;-122.338;2022-07-23T07:23:00;57.58;;;12.07;;
70010;SDS011;59543;37.950;-122.338;2022-07-23T07:25:27;71.93;;;13.60;;
70010;SDS011;59543;37.950;-122.338;2022-07-23T07:27:53;60.88;;;11.93;;
70010;SDS011;59543;37.950;-122.338;2022-07-23T07:30:19;68.55;;;13.45;;
70010;SDS011;59543;37.950;-122.338;2022-07-23T07:32:45;71.72;;;13.80;;
70010;SDS011;59543;37.950;-122.338;2022-07-23T07:35:12;67.18;;;12.30;;
70010;SDS011;59543;37.950;-122.338;2022-07-23T07:37:39;74.45;;;13.20;;
70010;SDS011;59543;37.950;-122.338;2022-07-23T07:40:05;72.40;;;12.65;;
70010;SDS011;59543;37.950;-122.338;2022-07-23T07:42:32;60.45;;;12.70;;
70010;SDS011;59543;37.950;-122.338;2022-07-23T07:44:58;67.85;;;12.50;;
70010;SDS011;59543;37.950;-122.338;2022-07-23T07:47:24;64.60;;;11.95;;
70010;SDS011;59543;37.950;-122.338;2022-07-23T07:49:50;62.83;;;12.90;;
70010;SDS011;59543;37.950;-122.338;2022-07-23T07:52:17;62.42;;;12.35;;
70010;SDS011;59543;37.950;-122.338;2022-07-23T07:54:43;68.05;;;12.93;;
70010;SDS011;59543;37.950;-122.338;2022-07-23T07:57:09;55.78;;;12.48;;
70010;SDS011;59543;37.950;-122.338;2022-07-23T07:59:35;64.22;;;12.52;;
70010;SDS011;59543;37.950;-122.338;2022-07-23T08:02:01;54.33;;;11.93;;
70010;SDS011;59543;37.950;-122.338;2022-07-23T08:04:28;58.00;;;12.57;;
70010;SDS011;59543;37.950;-122.338;2022-07-23T08:06:54;57.88;;;12.25;;
70010;SDS011;59543;37.950;-122.338;2022-07-23T08:09:20;62.15;;;12.90;;
70010;SDS011;59543;37.950;-122.338;2022-07-23T08:11:46;56.20;;;11.48;;
70010;SDS011;59543;37.950;-122.338;2022-07-23T08:14:12;56.42;;;11.85;;
70010;SDS011;59543;37.950;-122.338;2022-07-23T08:16:39;58.20;;;11.77;;
70010;SDS011;59543;37.950;-122.338;2022-07-23T08:19:05;52.88;;;11.82;;
70010;SDS011;59543;37.950;-122.338;2022-07-23T08:21:31;45.42;;;10.38;;
70010;SDS011;59543;37.950;-122.338;2022-07-23T08:23:57;46.15;;;9.90;;
70010;SDS011;59543;37.950;-122.338;2022-07-23T08:26:23;43.40;;;9.43;;
70010;SDS011;59543;37.950;-122.338;2022-07-23T08:28:49;43.47;;;9.80;;
70010;SDS011;59543;37.950;-122.338;2022-07-23T08:31:16;41.58;;;9.57;;
70010;SDS011;59543;37.950;-122.338;2022-07-23T08:33:42;45.42;;;9.35;;
70010;SDS011;59543;37.950;-122.338;2022-07-23T08:36:09;48.70;;;9.82;;
70010;SDS011;59543;37.950;-122.338;2022-07-23T08:38:35;43.38;;;9.75;;
70010;SDS011;59543;37.950;-122.338;2022-07-23T08:41:02;43.22;;;9.52;;
70010;SDS011;59543;37.950;-122.338;2022-07-23T08:43:30;46.50;;;9.32;;
70010;SDS011;59543;37.950;-122.338;2022-07-23T08:45:59;38.60;;;8.23;;
70010;SDS011;59543;37.950;-122.338;2022-07-23T08:48:27;40.58;;;9.18;;
70010;SDS011;59543;37.950;-122.338;2022-07-23T08:50:55;35.50;;;8.43;;
70010;SDS011;59543;37.950;-122.338;2022-07-23T08:53:23;29.83;;;7.43;;
70010;SDS011;59543;37.950;-122.338;2022-07-23T08:55:51;33.35;;;7.65;;
70010;SDS011;59543;37.950;-122.338;2022-07-23T08:58:19;29.77;;;7.10;;
70010;SDS011;59543;37.950;-122.338;2022-07-23T09:00:47;29.65;;;7.18;;
70010;SDS011;59543;37.950;-122.338;2022-07-23T09:03:22;30.80;;;7.85;;
70010;SDS011;59543;37.950;-122.338;2022-07-23T09:05:49;31.73;;;7.00;;
70010;SDS011;59543;37.950;-122.338;2022-07-23T09:08:23;31.15;;;7.68;;
70010;SDS011;59543;37.950;-122.338;2022-07-23T09:11:00;29.88;;;7.18;;
70010;SDS011;59543;37.950;-122.338;2022-07-23T09:16:11;29.55;;;7.45;;
70010;SDS011;59543;37.950;-122.338;2022-07-23T09:18:48;30.00;;;7.22;;
70010;SDS011;59543;37.950;-122.338;2022-07-23T09:26:27;22.40;;;6.85;;
70010;SDS011;59543;37.950;-122.338;2022-07-23T09:29:00;22.85;;;7.00;;
70010;SDS011;59543;37.950;-122.338;2022-07-23T09:31:42;29.80;;;6.93;;
70010;SDS011;59543;37.950;-122.338;2022-07-23T09:34:33;27.13;;;6.93;;
70010;SDS011;59543;37.950;-122.338;2022-07-23T09:37:13;23.83;;;6.68;;
70010;SDS011;59543;37.950;-122.338;2022-07-23T09:39:41;25.65;;;6.43;;
70010;SDS011;59543;37.950;-122.338;2022-07-23T09:42:15;23.85;;;6.50;;
70010;SDS011;59543;37.950;-122.338;2022-07-23T09:44:47;25.33;;;7.07;;
70010;SDS011;59543;37.950;-122.338;2022-07-23T09:47:14;29.52;;;7.45;;
70010;SDS011;59543;37.950;-122.338;2022-07-23T09:50:27;30.95;;;7.05;;
70010;SDS011;59543;37.950;-122.338;2022-07-23T09:52:42;39.33;;;7.88;;
70010;SDS011;59543;37.950;-122.338;2022-07-23T09:55:12;30.50;;;7.30;;
70010;SDS011;59543;37.950;-122.338;2022-07-23T09:57:39;26.88;;;7.20;;
70010;SDS011;59543;37.950;-122.338;2022-07-23T10:00:09;28.10;;;7.32;;
70010;SDS011;59543;37.950;-122.338;2022-07-23T10:02:36;27.17;;;7.22;;
70010;SDS011;59543;37.950;-122.338;2022-07-23T10:05:03;23.77;;;6.55;;
70010;SDS011;59543;37.950;-122.338;2022-07-23T10:07:34;22.98;;;6.68;;
70010;SDS011;59543;37.950;-122.338;2022-07-23T10:10:04;27.67;;;7.20;;
70010;SDS011;59543;37.950;-122.338;2022-07-23T10:12:31;29.13;;;7.70;;
70010;SDS011;59543;37.950;-122.338;2022-07-23T10:15:15;25.98;;;6.88;;
70010;SDS011;59543;37.950;-122.338;2022-07-23T10:17:42;28.67;;;7.03;;
70010;SDS011;59543;37.950;-122.338;2022-07-23T10:20:08;27.30;;;7.20;;
70010;SDS011;59543;37.950;-122.338;2022-07-23T10:22:35;32.33;;;7.35;;
70010;SDS011;59543;37.950;-122.338;2022-07-23T10:25:08;31.67;;;7.45;;
70010;SDS011;59543;37.950;-122.338;2022-07-23T10:38:37;27.60;;;7.82;;
70010;SDS011;59543;37.950;-122.338;2022-07-23T10:41:13;26.50;;;6.25;;
70010;SDS011;59543;37.950;-122.338;2022-07-23T10:43:40;26.17;;;6.15;;
70010;SDS011;59543;37.950;-122.338;2022-07-23T10:46:22;25.38;;;6.18;;
70010;SDS011;59543;37.950;-122.338;2022-07-23T10:54:37;25.70;;;6.75;;
70010;SDS011;59543;37.950;-122.338;2022-07-23T10:57:07;29.88;;;7.10;;
70010;SDS011;59543;37.950;-122.338;2022-07-23T11:02:31;29.30;;;7.30;;
70010;SDS011;59543;37.950;-122.338;2022-07-23T11:05:04;30.48;;;7.82;;
70010;SDS011;59543;37.950;-122.338;2022-07-23T11:07:33;30.92;;;7.63;;
70010;SDS011;59543;37.950;-122.338;2022-07-23T11:09:59;32.08;;;7.97;;
70010;SDS011;59543;37.950;-122.338;2022-07-23T11:15:00;31.00;;;7.35;;
70010;SDS011;59543;37.950;-122.338;2022-07-23T11:17:35;31.55;;;7.25;;
70010;SDS011;59543;37.950;-122.338;2022-07-23T11:25:13;35.05;;;7.38;;
70010;SDS011;59543;37.950;-122.338;2022-07-23T11:28:11;32.60;;;6.82;;
70010;SDS011;59543;37.950;-122.338;2022-07-23T11:30:46;29.45;;;6.95;;
70010;SDS011;59543;37.950;-122.338;2022-07-23T11:35:43;22.80;;;6.65;;
70010;SDS011;59543;37.950;-122.338;2022-07-23T11:38:15;33.28;;;7.43;;
70010;SDS011;59543;37.950;-122.338;2022-07-23T11:40:50;31.25;;;7.38;;
70010;SDS011;59543;37.950;-122.338;2022-07-23T11:43:19;27.02;;;6.97;;
70010;SDS011;59543;37.950;-122.338;2022-07-23T11:45:50;31.17;;;7.80;;
70010;SDS011;59543;37.950;-122.338;2022-07-23T11:48:24;36.05;;;6.70;;
70010;SDS011;59543;37.950;-122.338;2022-07-23T11:50:55;30.70;;;7.03;;
70010;SDS011;59543;37.950;-122.338;2022-07-23T11:55:50;28.48;;;6.57;;
70010;SDS011;59543;37.950;-122.338;2022-07-23T11:58:17;24.40;;;6.18;;
70010;SDS011;59543;37.950;-122.338;2022-07-23T12:00:44;33.13;;;6.70;;
70010;SDS011;59543;37.950;-122.338;2022-07-23T12:03:10;27.67;;;6.03;;
70010;SDS011;59543;37.950;-122.338;2022-07-23T12:05:37;47.67;;;7.47;;
70010;SDS011;59543;37.950;-122.338;2022-07-23T12:08:05;29.67;;;6.38;;
70010;SDS011;59543;37.950;-122.338;2022-07-23T12:10:37;30.83;;;6.68;;
70010;SDS011;59543;37.950;-122.338;2022-07-23T12:13:09;29.27;;;6.95;;
70010;SDS011;59543;37.950;-122.338;2022-07-23T12:15:53;29.85;;;7.40;;
70010;SDS011;59543;37.950;-122.338;2022-07-23T12:18:23;27.13;;;7.30;;
70010;SDS011;59543;37.950;-122.338;2022-07-23T12:20:52;29.10;;;6.90;;
70010;SDS011;59543;37.950;-122.338;2022-07-23T12:23:24;33.20;;;7.10;;
70010;SDS011;59543;37.950;-122.338;2022-07-23T12:25:52;28.27;;;6.65;;
70010;SDS011;59543;37.950;-122.338;2022-07-23T12:30:47;24.73;;;6.03;;
70010;SDS011;59543;37.950;-122.338;2022-07-23T12:33:34;25.10;;;5.90;;
70010;SDS011;59543;37.950;-122.338;2022-07-23T12:36:02;17.73;;;4.65;;
70010;SDS011;59543;37.950;-122.338;2022-07-23T12:38:41;19.63;;;4.57;;
70010;SDS011;59543;37.950;-122.338;2022-07-23T12:41:14;15.15;;;4.10;;
70010;SDS011;59543;37.950;-122.338;2022-07-23T12:43:42;17.13;;;3.90;;
70010;SDS011;59543;37.950;-122.338;2022-07-23T12:46:11;14.93;;;3.90;;
70010;SDS011;59543;37.950;-122.338;2022-07-23T12:51:23;10.90;;;3.08;;
70010;SDS011;59543;37.950;-122.338;2022-07-23T12:53:52;12.05;;;3.03;;
70010;SDS011;59543;37.950;-122.338;2022-07-23T12:56:21;13.48;;;3.25;;
70010;SDS011;59543;37.950;-122.338;2022-07-23T13:01:39;19.98;;;3.78;;
70010;SDS011;59543;37.950;-122.338;2022-07-23T13:04:07;12.77;;;3.05;;
70010;SDS011;59543;37.950;-122.338;2022-07-23T13:06:47;14.20;;;3.35;;
70010;SDS011;59543;37.950;-122.338;2022-07-23T13:09:17;13.48;;;3.45;;
70010;SDS011;59543;37.950;-122.338;2022-07-23T13:11:45;11.77;;;2.83;;
70010;SDS011;59543;37.950;-122.338;2022-07-23T13:14:13;11.50;;;3.15;;
70010;SDS011;59543;37.950;-122.338;2022-07-23T13:16:40;12.57;;;3.15;;
70010;SDS011;59543;37.950;-122.338;2022-07-23T13:19:07;12.80;;;3.15;;
70010;SDS011;59543;37.950;-122.338;2022-07-23T13:21:34;10.70;;;2.90;;
70010;SDS011;59543;37.950;-122.338;2022-07-23T13:24:00;10.25;;;3.10;;
70010;SDS011;59543;37.950;-122.338;2022-07-23T13:26:26;11.02;;;2.88;;
70010;SDS011;59543;37.950;-122.338;2022-07-23T13:28:54;12.07;;;3.22;;
70010;SDS011;59543;37.950;-122.338;2022-07-23T13:31:21;10.73;;;3.05;;
70010;SDS011;59543;37.950;-122.338;2022-07-23T13:33:47;11.43;;;3.15;;
70010;SDS011;59543;37.950;-122.338;2022-07-23T13:36:13;11.85;;;3.10;;
70010;SDS011;59543;37.950;-122.338;2022-07-23T13:38:40;11.30;;;3.10;;
70010;SDS011;59543;37.950;-122.338;2022-07-23T13:41:06;11.02;;;2.90;;
70010;SDS011;59543;37.950;-122.338;2022-07-23T13:43:32;15.65;;;3.60;;
70010;SDS011;59543;37.950;-122.338;2022-07-23T13:45:58;12.00;;;3.25;;
70010;SDS011;59543;37.950;-122.338;2022-07-23T13:48:25;10.90;;;3.28;;
70010;SDS011;59543;37.950;-122.338;2022-07-23T13:50:51;9.20;;;2.80;;
70010;SDS011;59543;37.950;-122.338;2022-07-23T13:53:19;16.85;;;2.97;;
70010;SDS011;59543;37.950;-122.338;2022-07-23T13:55:48;10.60;;;3.15;;
70010;SDS011;59543;37.950;-122.338;2022-07-23T13:58:16;11.50;;;3.08;;
70010;SDS011;59543;37.950;-122.338;2022-07-23T14:00:44;12.65;;;3.20;;
70010;SDS011;59543;37.950;-122.338;2022-07-23T14:03:12;16.63;;;3.33;;
70010;SDS011;59543;37.950;-122.338;2022-07-23T14:05:39;19.02;;;3.70;;
70010;SDS011;59543;37.950;-122.338;2022-07-23T14:08:07;14.05;;;3.17;;
70010;SDS011;59543;37.950;-122.338;2022-07-23T14:10:34;9.52;;;2.78;;
70010;SDS011;59543;37.950;-122.338;2022-07-23T14:13:00;12.27;;;3.20;;
70010;SDS011;59543;37.950;-122.338;2022-07-23T14:15:27;16.23;;;3.55;;
70010;SDS011;59543;37.950;-122.338;2022-07-23T14:17:55;11.05;;;2.90;;
70010;SDS011;59543;37.950;-122.338;2022-07-23T14:20:22;12.70;;;2.90;;
70010;SDS011;59543;37.950;-122.338;2022-07-23T14:22:49;11.95;;;3.25;;
70010;SDS011;59543;37.950;-122.338;2022-07-23T14:25:15;12.35;;;2.83;;
70010;SDS011;59543;37.950;-122.338;2022-07-23T14:27:42;9.45;;;2.72;;
70010;SDS011;59543;37.950;-122.338;2022-07-23T14:30:10;9.85;;;2.80;;
70010;SDS011;59543;37.950;-122.338;2022-07-23T14:32:37;8.65;;;2.50;;
70010;SDS011;59543;37.950;-122.338;2022-07-23T14:35:04;10.43;;;2.58;;
70010;SDS011;59543;37.950;-122.338;2022-07-23T14:37:32;10.50;;;2.47;;
70010;SDS011;59543;37.950;-122.338;2022-07-23T14:39:58;9.65;;;3.42;;
70010;SDS011;59543;37.950;-122.338;2022-07-23T14:42:25;9.57;;;2.95;;
70010;SDS011;59543;37.950;-122.338;2022-07-23T14:44:51;13.70;;;3.30;;